sensor_id;sensor_type;location;lat;lon;timestamp;P1;durP1;ratioP1;P2;durP2;ratioP2
59145;SDS011;44928;53.074;6.646;2022-09-09T00:02:22;15.65;;;8.10;;
59145;SDS011;44928;53.074;6.646;2022-09-09T00:04:58;11.15;;;6.68;;
59145;SDS011;44928;53.074;6.646;2022-09-09T00:20:49;11.73;;;7.05;;
59145;SDS011;44928;53.074;6.646;2022-09-09T00:23:30;12.13;;;7.25;;
59145;SDS011;44928;53.074;6.646;2022-09-09T00:28:39;11.85;;;6.85;;
59145;SDS011;44928;53.074;6.646;2022-09-09T00:31:16;10.98;;;6.93;;
59145;SDS011;44928;53.074;6.646;2022-09-09T00:33:47;11.95;;;7.22;;
59145;SDS011;44928;53.074;6.646;2022-09-09T00:36:14;11.30;;;7.50;;
59145;SDS011;44928;53.074;6.646;2022-09-09T00:38:51;11.13;;;7.10;;
59145;SDS011;44928;53.074;6.646;2022-09-09T00:46:59;14.02;;;7.63;;
59145;SDS011;44928;53.074;6.646;2022-09-09T00:52:12;12.82;;;7.65;;
59145;SDS011;44928;53.074;6.646;2022-09-09T00:55:21;12.15;;;6.95;;
59145;SDS011;44928;53.074;6.646;2022-09-09T00:57:46;13.38;;;7.50;;
59145;SDS011;44928;53.074;6.646;2022-09-09T01:00:27;13.30;;;7.40;;
59145;SDS011;44928;53.074;6.646;2022-09-09T01:08:56;12.63;;;7.15;;
59145;SDS011;44928;53.074;6.646;2022-09-09T01:11:41;12.35;;;7.15;;
59145;SDS011;44928;53.074;6.646;2022-09-09T01:17:03;12.45;;;7.10;;
59145;SDS011;44928;53.074;6.646;2022-09-09T01:22:31;12.07;;;6.93;;
59145;SDS011;44928;53.074;6.646;2022-09-09T01:25:20;13.02;;;7.18;;
59145;SDS011;44928;53.074;6.646;2022-09-09T01:27:51;12.52;;;7.35;;
59145;SDS011;44928;53.074;6.646;2022-09-09T01:30:20;11.13;;;6.43;;
59145;SDS011;44928;53.074;6.646;2022-09-09T01:32:53;12.63;;;7.00;;
59145;SDS011;44928;53.074;6.646;2022-09-09T01:38:08;11.93;;;6.70;;
59145;SDS011;44928;53.074;6.646;2022-09-09T01:40:34;11.43;;;6.90;;
59145;SDS011;44928;53.074;6.646;2022-09-09T01:43:00;11.07;;;7.00;;
59145;SDS011;44928;53.074;6.646;2022-09-09T01:45:26;10.90;;;6.80;;
59145;SDS011;44928;53.074;6.646;2022-09-09T01:47:52;10.48;;;7.38;;
59145;SDS011;44928;53.074;6.646;2022-09-09T01:50:19;11.63;;;6.90;;
59145;SDS011;44928;53.074;6.646;2022-09-09T01:52:46;11.90;;;6.80;;
59145;SDS011;44928;53.074;6.646;2022-09-09T01:55:33;10.75;;;6.40;;
59145;SDS011;44928;53.074;6.646;2022-09-09T02:00:56;13.13;;;7.53;;
59145;SDS011;44928;53.074;6.646;2022-09-09T02:03:56;13.48;;;7.18;;
59145;SDS011;44928;53.074;6.646;2022-09-09T02:06:28;11.90;;;6.97;;
59145;SDS011;44928;53.074;6.646;2022-09-09T02:08:59;11.45;;;6.63;;
59145;SDS011;44928;53.074;6.646;2022-09-09T02:11:28;12.43;;;7.13;;
59145;SDS011;44928;53.074;6.646;2022-09-09T02:14:14;11.73;;;6.57;;
59145;SDS011;44928;53.074;6.646;2022-09-09T02:21:50;11.88;;;6.60;;
59145;SDS011;44928;53.074;6.646;2022-09-09T02:24:19;13.57;;;6.60;;
59145;SDS011;44928;53.074;6.646;2022-09-09T02:26:45;11.77;;;6.68;;
59145;SDS011;44928;53.074;6.646;2022-09-09T02:29:15;13.82;;;7.00;;
59145;SDS011;44928;53.074;6.646;2022-09-09T02:31:47;12.20;;;6.50;;
59145;SDS011;44928;53.074;6.646;2022-09-09T02:34:16;12.95;;;6.93;;
59145;SDS011;44928;53.074;6.646;2022-09-09T02:36:45;15.35;;;7.03;;
59145;SDS011;44928;53.074;6.646;2022-09-09T02:39:13;13.75;;;7.18;;
59145;SDS011;44928;53.074;6.646;2022-09-09T02:41:40;12.25;;;6.22;;
59145;SDS011;44928;53.074;6.646;2022-09-09T02:44:11;12.23;;;6.30;;
59145;SDS011;44928;53.074;6.646;2022-09-09T02:49:40;11.57;;;6.15;;
59145;SDS011;44928;53.074;6.646;2022-09-09T02:52:15;12.48;;;6.20;;
59145;SDS011;44928;53.074;6.646;2022-09-09T02:54:51;11.18;;;5.90;;
59145;SDS011;44928;53.074;6.646;2022-09-09T02:57:25;12.38;;;5.90;;
59145;SDS011;44928;53.074;6.646;2022-09-09T02:59:56;15.32;;;6.63;;
59145;SDS011;44928;53.074;6.646;2022-09-09T03:02:26;11.90;;;6.03;;
59145;SDS011;44928;53.074;6.646;2022-09-09T03:04:52;11.43;;;6.13;;
59145;SDS011;44928;53.074;6.646;2022-09-09T03:07:18;10.73;;;6.07;;
59145;SDS011;44928;53.074;6.646;2022-09-09T03:09:44;9.60;;;5.40;;
59145;SDS011;44928;53.074;6.646;2022-09-09T03:12:10;9.45;;;5.35;;
59145;SDS011;44928;53.074;6.646;2022-09-09T03:14:37;11.05;;;5.72;;
59145;SDS011;44928;53.074;6.646;2022-09-09T03:17:03;10.95;;;5.18;;
59145;SDS011;44928;53.074;6.646;2022-09-09T03:19:30;10.40;;;5.38;;
59145;SDS011;44928;53.074;6.646;2022-09-09T03:21:56;11.52;;;4.85;;
59145;SDS011;44928;53.074;6.646;2022-09-09T03:24:23;11.30;;;4.88;;
59145;SDS011;44928;53.074;6.646;2022-09-09T03:26:49;12.23;;;4.35;;
59145;SDS011;44928;53.074;6.646;2022-09-09T03:29:15;9.45;;;3.72;;
59145;SDS011;44928;53.074;6.646;2022-09-09T03:31:42;10.57;;;3.95;;
59145;SDS011;44928;53.074;6.646;2022-09-09T03:34:08;8.57;;;4.05;;
59145;SDS011;44928;53.074;6.646;2022-09-09T03:36:34;9.88;;;3.95;;
59145;SDS011;44928;53.074;6.646;2022-09-09T03:39:00;12.98;;;4.43;;
59145;SDS011;44928;53.074;6.646;2022-09-09T03:41:27;11.63;;;4.07;;
59145;SDS011;44928;53.074;6.646;2022-09-09T03:43:54;12.57;;;4.60;;
59145;SDS011;44928;53.074;6.646;2022-09-09T03:46:20;11.40;;;4.13;;
59145;SDS011;44928;53.074;6.646;2022-09-09T03:48:48;11.13;;;4.00;;
59145;SDS011;44928;53.074;6.646;2022-09-09T03:51:14;15.13;;;4.15;;
59145;SDS011;44928;53.074;6.646;2022-09-09T03:53:41;11.50;;;3.85;;
59145;SDS011;44928;53.074;6.646;2022-09-09T03:56:08;11.10;;;4.28;;
59145;SDS011;44928;53.074;6.646;2022-09-09T03:58:35;10.48;;;3.97;;
59145;SDS011;44928;53.074;6.646;2022-09-09T04:01:03;9.27;;;3.42;;
59145;SDS011;44928;53.074;6.646;2022-09-09T04:03:30;9.68;;;3.97;;
59145;SDS011;44928;53.074;6.646;2022-09-09T04:05:58;12.63;;;3.67;;
59145;SDS011;44928;53.074;6.646;2022-09-09T04:08:25;11.40;;;3.70;;
59145;SDS011;44928;53.074;6.646;2022-09-09T04:10:51;11.70;;;3.40;;
59145;SDS011;44928;53.074;6.646;2022-09-09T04:13:18;9.80;;;3.50;;
59145;SDS011;44928;53.074;6.646;2022-09-09T04:15:54;9.60;;;3.20;;
59145;SDS011;44928;53.074;6.646;2022-09-09T04:18:21;7.85;;;2.80;;
59145;SDS011;44928;53.074;6.646;2022-09-09T04:20:49;8.05;;;2.67;;
59145;SDS011;44928;53.074;6.646;2022-09-09T04:23:16;7.90;;;2.70;;
59145;SDS011;44928;53.074;6.646;2022-09-09T04:25:50;8.27;;;3.10;;
59145;SDS011;44928;53.074;6.646;2022-09-09T04:28:18;8.65;;;3.30;;
59145;SDS011;44928;53.074;6.646;2022-09-09T04:30:45;10.93;;;3.78;;
59145;SDS011;44928;53.074;6.646;2022-09-09T04:33:12;8.05;;;3.38;;
59145;SDS011;44928;53.074;6.646;2022-09-09T04:35:39;9.23;;;3.60;;
59145;SDS011;44928;53.074;6.646;2022-09-09T04:38:09;10.05;;;4.03;;
59145;SDS011;44928;53.074;6.646;2022-09-09T04:40:35;8.90;;;3.85;;
59145;SDS011;44928;53.074;6.646;2022-09-09T04:43:01;8.95;;;3.65;;
59145;SDS011;44928;53.074;6.646;2022-09-09T04:45:31;9.53;;;4.00;;
59145;SDS011;44928;53.074;6.646;2022-09-09T04:47:57;10.40;;;4.72;;
59145;SDS011;44928;53.074;6.646;2022-09-09T04:50:23;8.88;;;4.65;;
59145;SDS011;44928;53.074;6.646;2022-09-09T04:52:50;10.85;;;4.95;;
59145;SDS011;44928;53.074;6.646;2022-09-09T04:55:15;9.93;;;4.78;;
59145;SDS011;44928;53.074;6.646;2022-09-09T04:57:41;10.82;;;4.85;;
59145;SDS011;44928;53.074;6.646;2022-09-09T05:00:08;9.50;;;5.30;;
59145;SDS011;44928;53.074;6.646;2022-09-09T05:02:38;9.93;;;5.25;;
59145;SDS011;44928;53.074;6.646;2022-09-09T05:05:05;12.50;;;5.70;;
59145;SDS011;44928;53.074;6.646;2022-09-09T05:07:31;11.38;;;5.75;;
59145;SDS011;44928;53.074;6.646;2022-09-09T05:09:57;10.07;;;5.97;;
59145;SDS011;44928;53.074;6.646;2022-09-09T05:12:23;11.90;;;6.40;;
59145;SDS011;44928;53.074;6.646;2022-09-09T05:14:51;11.90;;;7.00;;
59145;SDS011;44928;53.074;6.646;2022-09-09T05:17:17;12.15;;;6.35;;
59145;SDS011;44928;53.074;6.646;2022-09-09T05:19:43;12.80;;;6.75;;
59145;SDS011;44928;53.074;6.646;2022-09-09T05:22:09;12.52;;;7.43;;
59145;SDS011;44928;53.074;6.646;2022-09-09T05:24:37;10.90;;;6.90;;
59145;SDS011;44928;53.074;6.646;2022-09-09T05:27:03;13.13;;;7.28;;
59145;SDS011;44928;53.074;6.646;2022-09-09T05:29:31;11.10;;;7.07;;
59145;SDS011;44928;53.074;6.646;2022-09-09T05:31:58;12.20;;;7.35;;
59145;SDS011;44928;53.074;6.646;2022-09-09T05:34:24;12.48;;;7.05;;
59145;SDS011;44928;53.074;6.646;2022-09-09T05:36:50;13.45;;;7.72;;
59145;SDS011;44928;53.074;6.646;2022-09-09T05:39:17;11.68;;;7.03;;
59145;SDS011;44928;53.074;6.646;2022-09-09T05:41:43;14.55;;;7.32;;
59145;SDS011;44928;53.074;6.646;2022-09-09T05:44:09;14.02;;;7.25;;
59145;SDS011;44928;53.074;6.646;2022-09-09T05:46:35;13.10;;;7.18;;
59145;SDS011;44928;53.074;6.646;2022-09-09T05:49:01;11.50;;;6.70;;
59145;SDS011;44928;53.074;6.646;2022-09-09T05:51:28;11.70;;;6.90;;
59145;SDS011;44928;53.074;6.646;2022-09-09T05:53:57;14.88;;;7.40;;
59145;SDS011;44928;53.074;6.646;2022-09-09T05:56:27;11.23;;;6.95;;
59145;SDS011;44928;53.074;6.646;2022-09-09T05:58:54;11.30;;;6.03;;
59145;SDS011;44928;53.074;6.646;2022-09-09T06:01:26;10.57;;;5.90;;
59145;SDS011;44928;53.074;6.646;2022-09-09T06:03:53;10.75;;;6.18;;
59145;SDS011;44928;53.074;6.646;2022-09-09T06:06:24;11.73;;;6.68;;
59145;SDS011;44928;53.074;6.646;2022-09-09T06:08:52;11.13;;;6.93;;
59145;SDS011;44928;53.074;6.646;2022-09-09T06:11:21;12.23;;;6.70;;
59145;SDS011;44928;53.074;6.646;2022-09-09T06:13:49;10.10;;;6.53;;
59145;SDS011;44928;53.074;6.646;2022-09-09T06:18:48;12.20;;;6.50;;
59145;SDS011;44928;53.074;6.646;2022-09-09T06:21:18;10.32;;;5.95;;
59145;SDS011;44928;53.074;6.646;2022-09-09T06:23:46;11.55;;;6.35;;
59145;SDS011;44928;53.074;6.646;2022-09-09T06:26:17;11.48;;;6.60;;
59145;SDS011;44928;53.074;6.646;2022-09-09T06:28:45;11.65;;;6.03;;
59145;SDS011;44928;53.074;6.646;2022-09-09T06:31:13;12.20;;;6.43;;
59145;SDS011;44928;53.074;6.646;2022-09-09T06:33:47;11.20;;;6.50;;
59145;SDS011;44928;53.074;6.646;2022-09-09T06:36:21;12.45;;;6.50;;
59145;SDS011;44928;53.074;6.646;2022-09-09T06:39:05;12.00;;;6.45;;
59145;SDS011;44928;53.074;6.646;2022-09-09T06:41:32;11.27;;;6.10;;
59145;SDS011;44928;53.074;6.646;2022-09-09T06:43:58;11.77;;;7.45;;
59145;SDS011;44928;53.074;6.646;2022-09-09T06:46:28;10.55;;;6.65;;
59145;SDS011;44928;53.074;6.646;2022-09-09T06:48:56;10.38;;;6.60;;
59145;SDS011;44928;53.074;6.646;2022-09-09T06:51:25;10.80;;;6.25;;
59145;SDS011;44928;53.074;6.646;2022-09-09T06:53:55;10.90;;;6.63;;
59145;SDS011;44928;53.074;6.646;2022-09-09T06:56:24;13.75;;;6.93;;
59145;SDS011;44928;53.074;6.646;2022-09-09T06:58:51;12.25;;;6.80;;
59145;SDS011;44928;53.074;6.646;2022-09-09T07:01:19;11.32;;;6.22;;
59145;SDS011;44928;53.074;6.646;2022-09-09T07:03:47;10.57;;;6.57;;
59145;SDS011;44928;53.074;6.646;2022-09-09T07:06:15;11.25;;;6.60;;
59145;SDS011;44928;53.074;6.646;2022-09-09T07:08:44;10.18;;;6.38;;
59145;SDS011;44928;53.074;6.646;2022-09-09T07:11:14;10.30;;;6.50;;
59145;SDS011;44928;53.074;6.646;2022-09-09T07:13:40;12.80;;;6.65;;
59145;SDS011;44928;53.074;6.646;2022-09-09T07:16:08;11.57;;;6.65;;
59145;SDS011;44928;53.074;6.646;2022-09-09T07:18:36;9.43;;;6.45;;
59145;SDS011;44928;53.074;6.646;2022-09-09T07:21:02;12.25;;;6.78;;
59145;SDS011;44928;53.074;6.646;2022-09-09T07:23:29;12.55;;;6.72;;
59145;SDS011;44928;53.074;6.646;2022-09-09T07:25:56;11.57;;;6.82;;
59145;SDS011;44928;53.074;6.646;2022-09-09T07:28:23;12.00;;;5.93;;
59145;SDS011;44928;53.074;6.646;2022-09-09T07:30:53;10.63;;;6.35;;
59145;SDS011;44928;53.074;6.646;2022-09-09T07:33:23;11.30;;;6.40;;
59145;SDS011;44928;53.074;6.646;2022-09-09T07:35:50;10.43;;;6.28;;
59145;SDS011;44928;53.074;6.646;2022-09-09T07:38:17;10.80;;;6.18;;
59145;SDS011;44928;53.074;6.646;2022-09-09T07:40:44;11.48;;;6.55;;
59145;SDS011;44928;53.074;6.646;2022-09-09T07:43:11;12.48;;;6.03;;
59145;SDS011;44928;53.074;6.646;2022-09-09T07:45:37;10.65;;;5.75;;
59145;SDS011;44928;53.074;6.646;2022-09-09T07:48:03;11.20;;;6.07;;
59145;SDS011;44928;53.074;6.646;2022-09-09T07:50:30;11.13;;;5.75;;
59145;SDS011;44928;53.074;6.646;2022-09-09T07:52:56;11.15;;;6.00;;
59145;SDS011;44928;53.074;6.646;2022-09-09T07:55:22;10.85;;;6.05;;
59145;SDS011;44928;53.074;6.646;2022-09-09T07:57:55;12.30;;;5.60;;
59145;SDS011;44928;53.074;6.646;2022-09-09T08:00:21;10.02;;;5.22;;
59145;SDS011;44928;53.074;6.646;2022-09-09T08:02:47;10.18;;;5.47;;
59145;SDS011;44928;53.074;6.646;2022-09-09T08:05:13;11.48;;;5.28;;
59145;SDS011;44928;53.074;6.646;2022-09-09T08:07:40;10.10;;;5.40;;
59145;SDS011;44928;53.074;6.646;2022-09-09T08:10:05;10.43;;;5.55;;
59145;SDS011;44928;53.074;6.646;2022-09-09T08:12:32;10.90;;;5.88;;
59145;SDS011;44928;53.074;6.646;2022-09-09T08:14:57;12.68;;;5.47;;
59145;SDS011;44928;53.074;6.646;2022-09-09T08:17:23;12.73;;;5.53;;
59145;SDS011;44928;53.074;6.646;2022-09-09T08:19:49;11.43;;;5.25;;
59145;SDS011;44928;53.074;6.646;2022-09-09T08:22:15;8.90;;;5.55;;
59145;SDS011;44928;53.074;6.646;2022-09-09T08:24:41;10.52;;;5.28;;
59145;SDS011;44928;53.074;6.646;2022-09-09T08:27:06;10.45;;;5.22;;
59145;SDS011;44928;53.074;6.646;2022-09-09T08:29:32;12.30;;;5.13;;
59145;SDS011;44928;53.074;6.646;2022-09-09T08:31:58;9.88;;;5.28;;
59145;SDS011;44928;53.074;6.646;2022-09-09T08:34:25;12.50;;;5.25;;
59145;SDS011;44928;53.074;6.646;2022-09-09T08:36:52;11.10;;;5.10;;
59145;SDS011;44928;53.074;6.646;2022-09-09T08:39:19;9.52;;;4.65;;
59145;SDS011;44928;53.074;6.646;2022-09-09T08:41:52;12.10;;;4.55;;
59145;SDS011;44928;53.074;6.646;2022-09-09T08:52:23;11.05;;;4.68;;
59145;SDS011;44928;53.074;6.646;2022-09-09T08:54:55;11.52;;;4.95;;
59145;SDS011;44928;53.074;6.646;2022-09-09T08:57:24;8.32;;;4.78;;
59145;SDS011;44928;53.074;6.646;2022-09-09T08:59:52;10.48;;;4.63;;
59145;SDS011;44928;53.074;6.646;2022-09-09T09:02:22;12.43;;;5.30;;
59145;SDS011;44928;53.074;6.646;2022-09-09T09:05:19;10.43;;;4.82;;
59145;SDS011;44928;53.074;6.646;2022-09-09T09:13:15;11.20;;;4.38;;
59145;SDS011;44928;53.074;6.646;2022-09-09T09:19:03;10.93;;;4.50;;
59145;SDS011;44928;53.074;6.646;2022-09-09T09:24:30;10.05;;;4.60;;
59145;SDS011;44928;53.074;6.646;2022-09-09T09:27:19;10.90;;;4.20;;
59145;SDS011;44928;53.074;6.646;2022-09-09T09:35:41;10.70;;;4.18;;
59145;SDS011;44928;53.074;6.646;2022-09-09T09:38:17;9.57;;;3.97;;
59145;SDS011;44928;53.074;6.646;2022-09-09T09:40:51;11.20;;;3.80;;
59145;SDS011;44928;53.074;6.646;2022-09-09T09:45:54;9.45;;;3.83;;
59145;SDS011;44928;53.074;6.646;2022-09-09T09:48:23;8.90;;;3.90;;
59145;SDS011;44928;53.074;6.646;2022-09-09T09:50:51;10.73;;;3.85;;
59145;SDS011;44928;53.074;6.646;2022-09-09T09:55:53;10.38;;;3.20;;
59145;SDS011;44928;53.074;6.646;2022-09-09T10:01:27;8.77;;;2.60;;
59145;SDS011;44928;53.074;6.646;2022-09-09T10:03:57;9.68;;;2.70;;
59145;SDS011;44928;53.074;6.646;2022-09-09T10:08:58;10.82;;;2.72;;
59145;SDS011;44928;53.074;6.646;2022-09-09T10:19:44;10.52;;;2.40;;
59145;SDS011;44928;53.074;6.646;2022-09-09T10:30:39;9.35;;;2.22;;
59145;SDS011;44928;53.074;6.646;2022-09-09T10:36:43;8.88;;;2.33;;
59145;SDS011;44928;53.074;6.646;2022-09-09T10:38:48;11.15;;;2.15;;
59145;SDS011;44928;53.074;6.646;2022-09-09T10:50:50;9.23;;;2.28;;
59145;SDS011;44928;53.074;6.646;2022-09-09T10:56:42;6.32;;;1.50;;
59145;SDS011;44928;53.074;6.646;2022-09-09T10:59:23;7.47;;;2.00;;
59145;SDS011;44928;53.074;6.646;2022-09-09T11:04:40;9.63;;;1.70;;
59145;SDS011;44928;53.074;6.646;2022-09-09T11:07:13;10.00;;;2.15;;
59145;SDS011;44928;53.074;6.646;2022-09-09T11:09:50;10.50;;;1.67;;
59145;SDS011;44928;53.074;6.646;2022-09-09T11:12:21;7.60;;;1.40;;
59145;SDS011;44928;53.074;6.646;2022-09-09T11:14:59;7.78;;;1.70;;
59145;SDS011;44928;53.074;6.646;2022-09-09T11:17:42;7.70;;;1.90;;
59145;SDS011;44928;53.074;6.646;2022-09-09T11:20:14;7.88;;;1.50;;
59145;SDS011;44928;53.074;6.646;2022-09-09T11:23:24;8.77;;;1.50;;
59145;SDS011;44928;53.074;6.646;2022-09-09T11:25:40;9.27;;;1.92;;
59145;SDS011;44928;53.074;6.646;2022-09-09T11:28:27;9.98;;;1.60;;
59145;SDS011;44928;53.074;6.646;2022-09-09T11:41:52;7.15;;;1.58;;
59145;SDS011;44928;53.074;6.646;2022-09-09T11:44:30;7.32;;;1.33;;
59145;SDS011;44928;53.074;6.646;2022-09-09T11:46:56;8.00;;;1.63;;
59145;SDS011;44928;53.074;6.646;2022-09-09T11:49:26;6.53;;;1.58;;
59145;SDS011;44928;53.074;6.646;2022-09-09T11:51:55;8.07;;;1.73;;
59145;SDS011;44928;53.074;6.646;2022-09-09T11:54:31;5.75;;;1.38;;
59145;SDS011;44928;53.074;6.646;2022-09-09T11:57:00;8.70;;;1.75;;
59145;SDS011;44928;53.074;6.646;2022-09-09T11:59:30;7.30;;;1.85;;
59145;SDS011;44928;53.074;6.646;2022-09-09T12:02:00;8.60;;;1.83;;
59145;SDS011;44928;53.074;6.646;2022-09-09T12:04:28;10.27;;;1.60;;
59145;SDS011;44928;53.074;6.646;2022-09-09T12:07:02;6.28;;;1.80;;
59145;SDS011;44928;53.074;6.646;2022-09-09T12:14:38;7.22;;;1.65;;
59145;SDS011;44928;53.074;6.646;2022-09-09T12:19:39;7.78;;;1.60;;
59145;SDS011;44928;53.074;6.646;2022-09-09T12:24:44;9.90;;;1.90;;
59145;SDS011;44928;53.074;6.646;2022-09-09T12:27:26;10.85;;;2.33;;
59145;SDS011;44928;53.074;6.646;2022-09-09T12:30:12;8.82;;;1.65;;
59145;SDS011;44928;53.074;6.646;2022-09-09T12:32:41;6.65;;;1.50;;
59145;SDS011;44928;53.074;6.646;2022-09-09T12:35:20;7.65;;;1.73;;
59145;SDS011;44928;53.074;6.646;2022-09-09T12:37:52;8.43;;;1.60;;
59145;SDS011;44928;53.074;6.646;2022-09-09T12:40:26;6.57;;;1.65;;
59145;SDS011;44928;53.074;6.646;2022-09-09T12:42:58;7.38;;;1.73;;
59145;SDS011;44928;53.074;6.646;2022-09-09T12:45:26;7.53;;;1.67;;
59145;SDS011;44928;53.074;6.646;2022-09-09T12:47:58;9.13;;;1.80;;
59145;SDS011;44928;53.074;6.646;2022-09-09T12:50:37;8.43;;;1.77;;
59145;SDS011;44928;53.074;6.646;2022-09-09T12:53:10;8.40;;;1.60;;
59145;SDS011;44928;53.074;6.646;2022-09-09T12:55:48;7.72;;;1.40;;
59145;SDS011;44928;53.074;6.646;2022-09-09T12:58:25;6.93;;;1.25;;
59145;SDS011;44928;53.074;6.646;2022-09-09T13:00:54;12.80;;;2.22;;
59145;SDS011;44928;53.074;6.646;2022-09-09T13:03:21;5.80;;;1.20;;
59145;SDS011;44928;53.074;6.646;2022-09-09T13:05:50;6.38;;;1.35;;
59145;SDS011;44928;53.074;6.646;2022-09-09T13:08:16;7.47;;;1.60;;
59145;SDS011;44928;53.074;6.646;2022-09-09T13:13:25;8.27;;;1.30;;
59145;SDS011;44928;53.074;6.646;2022-09-09T13:15:59;5.75;;;1.15;;
59145;SDS011;44928;53.074;6.646;2022-09-09T13:18:30;8.07;;;1.35;;
59145;SDS011;44928;53.074;6.646;2022-09-09T13:21:00;6.32;;;1.30;;
59145;SDS011;44928;53.074;6.646;2022-09-09T13:23:31;4.97;;;1.20;;
59145;SDS011;44928;53.074;6.646;2022-09-09T13:26:04;9.40;;;1.75;;
59145;SDS011;44928;53.074;6.646;2022-09-09T13:28:47;4.38;;;1.15;;
59145;SDS011;44928;53.074;6.646;2022-09-09T13:34:10;6.47;;;1.50;;
59145;SDS011;44928;53.074;6.646;2022-09-09T13:36:38;7.95;;;1.45;;
59145;SDS011;44928;53.074;6.646;2022-09-09T13:39:13;5.70;;;1.13;;
59145;SDS011;44928;53.074;6.646;2022-09-09T13:41:43;6.50;;;1.20;;
59145;SDS011;44928;53.074;6.646;2022-09-09T13:47:20;5.55;;;0.88;;
59145;SDS011;44928;53.074;6.646;2022-09-09T13:49:57;3.33;;;0.65;;
59145;SDS011;44928;53.074;6.646;2022-09-09T13:52:23;3.35;;;0.60;;
59145;SDS011;44928;53.074;6.646;2022-09-09T13:54:49;2.58;;;0.50;;
59145;SDS011;44928;53.074;6.646;2022-09-09T13:57:17;3.45;;;0.60;;
59145;SDS011;44928;53.074;6.646;2022-09-09T13:59:46;3.88;;;0.95;;
59145;SDS011;44928;53.074;6.646;2022-09-09T14:02:13;3.97;;;0.90;;
59145;SDS011;44928;53.074;6.646;2022-09-09T14:04:39;3.38;;;0.70;;
59145;SDS011;44928;53.074;6.646;2022-09-09T14:07:09;5.22;;;1.20;;
59145;SDS011;44928;53.074;6.646;2022-09-09T14:09:38;4.57;;;1.02;;
59145;SDS011;44928;53.074;6.646;2022-09-09T14:12:04;6.75;;;1.25;;
59145;SDS011;44928;53.074;6.646;2022-09-09T14:14:30;6.82;;;1.45;;
59145;SDS011;44928;53.074;6.646;2022-09-09T14:16:56;6.05;;;1.30;;
59145;SDS011;44928;53.074;6.646;2022-09-09T14:19:21;6.15;;;1.17;;
59145;SDS011;44928;53.074;6.646;2022-09-09T14:21:47;5.38;;;1.35;;
59145;SDS011;44928;53.074;6.646;2022-09-09T14:24:13;4.53;;;1.30;;
59145;SDS011;44928;53.074;6.646;2022-09-09T14:26:39;5.70;;;1.38;;
59145;SDS011;44928;53.074;6.646;2022-09-09T14:29:05;7.10;;;1.80;;
59145;SDS011;44928;53.074;6.646;2022-09-09T14:31:32;10.98;;;2.10;;
59145;SDS011;44928;53.074;6.646;2022-09-09T14:33:58;9.10;;;2.03;;
59145;SDS011;44928;53.074;6.646;2022-09-09T14:36:24;9.38;;;1.85;;
59145;SDS011;44928;53.074;6.646;2022-09-09T14:38:49;7.07;;;1.58;;
59145;SDS011;44928;53.074;6.646;2022-09-09T14:41:16;7.07;;;1.58;;
59145;SDS011;44928;53.074;6.646;2022-09-09T14:43:44;10.00;;;1.98;;
59145;SDS011;44928;53.074;6.646;2022-09-09T14:46:11;5.60;;;1.30;;
59145;SDS011;44928;53.074;6.646;2022-09-09T14:48:38;7.13;;;1.65;;
59145;SDS011;44928;53.074;6.646;2022-09-09T14:51:10;7.60;;;1.85;;
59145;SDS011;44928;53.074;6.646;2022-09-09T14:53:38;6.68;;;1.80;;
59145;SDS011;44928;53.074;6.646;2022-09-09T14:56:08;7.40;;;1.52;;
59145;SDS011;44928;53.074;6.646;2022-09-09T14:58:40;7.63;;;1.45;;
59145;SDS011;44928;53.074;6.646;2022-09-09T15:01:07;8.07;;;1.80;;
59145;SDS011;44928;53.074;6.646;2022-09-09T15:03:38;6.57;;;1.35;;
59145;SDS011;44928;53.074;6.646;2022-09-09T15:06:05;5.65;;;1.20;;
59145;SDS011;44928;53.074;6.646;2022-09-09T15:08:36;4.93;;;1.05;;
59145;SDS011;44928;53.074;6.646;2022-09-09T15:11:03;5.00;;;1.10;;
59145;SDS011;44928;53.074;6.646;2022-09-09T15:13:30;4.88;;;1.30;;
59145;SDS011;44928;53.074;6.646;2022-09-09T15:16:02;6.15;;;1.15;;
59145;SDS011;44928;53.074;6.646;2022-09-09T15:18:33;4.70;;;1.13;;
59145;SDS011;44928;53.074;6.646;2022-09-09T15:21:01;3.08;;;1.00;;
59145;SDS011;44928;53.074;6.646;2022-09-09T15:23:33;1.83;;;0.68;;
59145;SDS011;44928;53.074;6.646;2022-09-09T15:25:59;2.45;;;0.88;;
59145;SDS011;44928;53.074;6.646;2022-09-09T15:28:25;2.75;;;0.68;;
59145;SDS011;44928;53.074;6.646;2022-09-09T15:30:52;4.07;;;0.85;;
59145;SDS011;44928;53.074;6.646;2022-09-09T15:33:19;4.78;;;0.95;;
59145;SDS011;44928;53.074;6.646;2022-09-09T15:35:45;5.38;;;1.10;;
59145;SDS011;44928;53.074;6.646;2022-09-09T15:38:11;3.10;;;0.90;;
59145;SDS011;44928;53.074;6.646;2022-09-09T15:40:42;6.03;;;1.38;;
59145;SDS011;44928;53.074;6.646;2022-09-09T15:43:08;2.75;;;1.00;;
59145;SDS011;44928;53.074;6.646;2022-09-09T15:45:36;6.43;;;1.10;;
59145;SDS011;44928;53.074;6.646;2022-09-09T15:48:02;4.80;;;0.93;;
59145;SDS011;44928;53.074;6.646;2022-09-09T15:50:29;5.10;;;1.23;;
59145;SDS011;44928;53.074;6.646;2022-09-09T15:52:58;4.60;;;1.15;;
59145;SDS011;44928;53.074;6.646;2022-09-09T15:55:24;3.78;;;1.15;;
59145;SDS011;44928;53.074;6.646;2022-09-09T15:57:50;4.43;;;0.98;;
59145;SDS011;44928;53.074;6.646;2022-09-09T16:00:18;4.78;;;1.30;;
59145;SDS011;44928;53.074;6.646;2022-09-09T16:02:45;7.47;;;1.27;;
59145;SDS011;44928;53.074;6.646;2022-09-09T16:05:12;5.88;;;1.20;;
59145;SDS011;44928;53.074;6.646;2022-09-09T16:07:38;4.97;;;1.27;;
59145;SDS011;44928;53.074;6.646;2022-09-09T16:10:04;4.97;;;1.25;;
59145;SDS011;44928;53.074;6.646;2022-09-09T16:12:31;4.75;;;1.40;;
59145;SDS011;44928;53.074;6.646;2022-09-09T16:14:56;4.20;;;1.55;;
59145;SDS011;44928;53.074;6.646;2022-09-09T16:17:22;2.78;;;1.10;;
59145;SDS011;44928;53.074;6.646;2022-09-09T16:19:48;5.00;;;1.20;;
59145;SDS011;44928;53.074;6.646;2022-09-09T16:22:14;5.85;;;1.38;;
59145;SDS011;44928;53.074;6.646;2022-09-09T16:24:41;5.20;;;1.30;;
59145;SDS011;44928;53.074;6.646;2022-09-09T16:27:06;2.47;;;0.98;;
59145;SDS011;44928;53.074;6.646;2022-09-09T16:29:32;4.07;;;1.13;;
59145;SDS011;44928;53.074;6.646;2022-09-09T16:31:58;6.20;;;1.20;;
59145;SDS011;44928;53.074;6.646;2022-09-09T16:34:25;4.43;;;1.17;;
59145;SDS011;44928;53.074;6.646;2022-09-09T16:36:51;5.95;;;1.40;;
59145;SDS011;44928;53.074;6.646;2022-09-09T16:39:17;5.65;;;1.35;;
59145;SDS011;44928;53.074;6.646;2022-09-09T16:41:45;5.97;;;1.17;;
59145;SDS011;44928;53.074;6.646;2022-09-09T16:44:16;4.60;;;1.38;;
59145;SDS011;44928;53.074;6.646;2022-09-09T16:46:44;4.97;;;1.30;;
59145;SDS011;44928;53.074;6.646;2022-09-09T16:49:12;7.13;;;1.60;;
59145;SDS011;44928;53.074;6.646;2022-09-09T16:51:41;3.83;;;1.25;;
59145;SDS011;44928;53.074;6.646;2022-09-09T16:54:09;4.18;;;1.30;;
59145;SDS011;44928;53.074;6.646;2022-09-09T16:56:39;5.10;;;1.20;;
59145;SDS011;44928;53.074;6.646;2022-09-09T16:59:09;5.55;;;1.52;;
59145;SDS011;44928;53.074;6.646;2022-09-09T17:01:37;4.82;;;1.50;;
59145;SDS011;44928;53.074;6.646;2022-09-09T17:04:09;4.45;;;1.30;;
59145;SDS011;44928;53.074;6.646;2022-09-09T17:06:38;6.28;;;1.23;;
59145;SDS011;44928;53.074;6.646;2022-09-09T17:09:05;7.13;;;1.63;;
59145;SDS011;44928;53.074;6.646;2022-09-09T17:11:32;3.85;;;1.15;;
59145;SDS011;44928;53.074;6.646;2022-09-09T17:13:59;7.35;;;1.75;;
59145;SDS011;44928;53.074;6.646;2022-09-09T17:16:27;6.78;;;2.42;;
59145;SDS011;44928;53.074;6.646;2022-09-09T17:18:55;6.03;;;1.75;;
59145;SDS011;44928;53.074;6.646;2022-09-09T17:21:22;6.20;;;2.22;;
59145;SDS011;44928;53.074;6.646;2022-09-09T17:23:50;5.97;;;1.98;;
59145;SDS011;44928;53.074;6.646;2022-09-09T17:26:17;5.32;;;2.05;;
59145;SDS011;44928;53.074;6.646;2022-09-09T17:28:46;7.97;;;2.63;;